createdAt,value
2019-04-23T00:00:15.825Z,99881.86
2019-04-23T00:03:11.465Z,99878.97
2019-04-23T00:06:12.104Z,99874.41
2019-04-23T00:08:58.062Z,99868.38
2019-04-23T00:11:46.163Z,99869.92
2019-04-23T00:14:49.871Z,99872.80
2019-04-23T00:17:37.325Z,99868.00
2019-04-23T00:20:27.272Z,99871.67
2019-04-23T00:23:25.081Z,99871.37
2019-04-23T00:29:14.943Z,99860.78
2019-04-23T00:32:04.812Z,99858.92
2019-04-23T00:35:00.665Z,99864.99
2019-04-23T00:37:47.436Z,99868.06
2019-04-23T00:40:45.407Z,99862.03
2019-04-23T00:43:40.682Z,99853.27
2019-04-23T00:46:28.981Z,99859.14
2019-04-23T00:52:24.341Z,99846.67
2019-04-23T00:58:06.588Z,99853.09
2019-04-23T01:00:52.482Z,99847.83
2019-04-23T01:03:50.398Z,99847.73
2019-04-23T01:06:37.883Z,99845.39
2019-04-23T01:09:39.328Z,99841.98
2019-04-23T01:12:38.388Z,99839.66
2019-04-23T01:15:25.820Z,99832.92
2019-04-23T01:18:28.219Z,99829.13
2019-04-23T01:20:54.892Z,99830.03
2019-04-23T01:24:15.373Z,99826.78
2019-04-23T01:30:31.598Z,99819.52
2019-04-23T01:33:31.361Z,99816.06
2019-04-23T01:36:23.340Z,99813.73
2019-04-23T01:39:14.458Z,99809.97
2019-04-23T01:42:07.094Z,99812.44
2019-04-23T01:45:05.000Z,99818.08
2019-04-23T01:47:49.617Z,99813.08
2019-04-23T01:56:30.701Z,99805.61
2019-04-23T01:59:26.271Z,99797.73
2019-04-23T02:02:22.486Z,99790.92
2019-04-23T02:05:17.357Z,99787.78
2019-04-23T02:08:06.494Z,99791.30
2019-04-23T02:10:56.322Z,99794.83
2019-04-23T02:13:48.970Z,99789.81
2019-04-23T02:16:57.896Z,99789.31
2019-04-23T02:19:38.775Z,99785.91
2019-04-23T02:23:05.000Z,99781.59
2019-04-23T02:25:53.832Z,99779.96
2019-04-23T02:28:42.861Z,99779.34
2019-04-23T02:40:30.534Z,99765.31
2019-04-23T02:43:15.284Z,99762.84
2019-04-23T02:51:52.817Z,99755.84
2019-04-23T02:54:51.093Z,99752.82
2019-04-23T03:01:03.585Z,99751.49
2019-04-23T03:03:29.657Z,99747.58
2019-04-23T03:06:29.851Z,99743.63
2019-04-23T03:09:33.953Z,99747.48
2019-04-23T03:12:06.353Z,99745.89
2019-04-23T03:15:15.190Z,99741.70
2019-04-23T03:21:54.356Z,99739.23
2019-04-23T03:39:52.945Z,99730.06
2019-04-23T03:42:30.516Z,99730.03
2019-04-23T03:45:25.284Z,99734.98
2019-04-23T03:48:20.031Z,99731.64
2019-04-23T03:51:03.026Z,99728.58
2019-04-23T03:54:25.986Z,99728.53
2019-04-23T03:57:09.804Z,99724.06
2019-04-23T04:05:41.439Z,99729.69
2019-04-23T04:08:25.782Z,99727.73
2019-04-23T04:14:21.322Z,99722.66
2019-04-23T04:17:10.250Z,99726.64
2019-04-23T04:19:56.176Z,99733.64
2019-04-23T04:23:00.385Z,99728.90
2019-04-23T04:25:48.679Z,99725.89
2019-04-23T04:28:48.513Z,99724.23
2019-04-23T04:31:45.747Z,99720.73
2019-04-23T04:34:55.708Z,99723.98
2019-04-23T04:37:36.084Z,99720.48
2019-04-23T04:40:29.006Z,99723.51
2019-04-23T04:43:19.097Z,99724.35
2019-04-23T04:49:05.535Z,99717.81
2019-04-23T04:54:47.635Z,99722.97
2019-04-23T04:57:36.507Z,99715.22
2019-04-23T05:00:39.738Z,99710.84
2019-04-23T05:06:16.180Z,99712.73
2019-04-23T05:12:01.111Z,99704.02
2019-04-23T05:15:04.852Z,99705.69
2019-04-23T05:18:17.321Z,99706.69
2019-04-23T05:20:53.532Z,99707.39
2019-04-23T05:26:41.783Z,99706.12
2019-04-23T05:29:19.961Z,99706.82
2019-04-23T05:32:23.751Z,99698.56
2019-04-23T05:35:20.344Z,99694.69
2019-04-23T05:41:10.343Z,99695.08
2019-04-23T05:43:58.034Z,99697.66
2019-04-23T05:46:45.856Z,99697.11
2019-04-23T05:49:43.078Z,99696.72
2019-04-23T05:52:38.063Z,99696.56
2019-04-23T05:55:19.044Z,99697.59
2019-04-23T05:58:22.153Z,99694.77
2019-04-23T06:07:24.477Z,99689.09
2019-04-23T06:10:04.873Z,99688.77
2019-04-23T06:13:00.831Z,99685.61
2019-04-23T06:16:05.017Z,99683.58
2019-04-23T06:18:44.738Z,99682.08
2019-04-23T06:21:44.774Z,99682.95
2019-04-23T06:30:17.742Z,99685.88
2019-04-23T06:33:14.587Z,99679.19
2019-04-23T06:36:05.515Z,99681.05
2019-04-23T06:41:50.042Z,99684.68
2019-04-23T06:47:54.176Z,99684.95
2019-04-23T06:50:52.662Z,99676.72
2019-04-23T06:53:37.476Z,99673.36
2019-04-23T06:59:25.993Z,99671.89
2019-04-23T07:02:21.725Z,99673.05
2019-04-23T07:08:04.389Z,99669.50
2019-04-23T07:11:08.339Z,99666.98
2019-04-23T07:16:48.285Z,99661.11
2019-04-23T07:22:32.313Z,99653.91
2019-04-23T07:25:22.144Z,99639.94
2019-04-23T07:28:28.999Z,99637.38
2019-04-23T07:31:24.272Z,99631.27
2019-04-23T07:36:58.820Z,99628.91
2019-04-23T07:43:33.543Z,99618.28
2019-04-23T07:46:34.972Z,99614.33
2019-04-23T07:49:23.642Z,99620.62
2019-04-23T07:55:19.460Z,99609.11
2019-04-23T07:58:15.539Z,99602.34
2019-04-23T08:01:08.394Z,99600.51
2019-04-23T08:03:57.720Z,99599.47
2019-04-23T08:06:46.370Z,99594.79
2019-04-23T08:09:46.158Z,99598.80
2019-04-23T08:12:31.566Z,99599.60
2019-04-23T08:18:19.875Z,99606.71
2019-04-23T08:21:10.122Z,99596.84
2019-04-23T08:24:38.012Z,99595.17
2019-04-23T08:30:25.557Z,99592.48
2019-04-23T08:33:17.656Z,99583.69
2019-04-23T08:36:20.108Z,99582.26
2019-04-23T08:39:07.072Z,99583.25
2019-04-23T08:42:24.981Z,99578.33
2019-04-23T08:51:26.206Z,99570.42
2019-04-23T08:54:03.430Z,99565.33
2019-04-23T08:57:02.709Z,99573.56
2019-04-23T08:59:50.260Z,99570.58
2019-04-23T09:08:32.684Z,99563.48
2019-04-23T09:11:43.460Z,99559.20
2019-04-23T09:14:08.912Z,99553.55
2019-04-23T09:17:16.761Z,99552.21
2019-04-23T09:20:21.871Z,99545.11
2019-04-23T09:23:08.016Z,99534.56
2019-04-23T09:32:22.283Z,99535.59
2019-04-23T09:38:39.658Z,99525.30
2019-04-23T09:41:34.457Z,99532.58
2019-04-23T09:44:58.143Z,99528.90
2019-04-23T09:48:04.374Z,99528.55
2019-04-23T09:51:10.255Z,99530.80
2019-04-23T09:54:04.304Z,99529.47
2019-04-23T09:59:49.782Z,99535.67
2019-04-23T10:02:29.133Z,99524.08
2019-04-23T10:05:18.335Z,99524.79
2019-04-23T10:08:10.779Z,99534.55
2019-04-23T10:10:53.340Z,99528.48
2019-04-23T10:13:45.199Z,99525.59
2019-04-23T10:16:37.063Z,99514.17
2019-04-23T10:19:28.794Z,99511.05
2019-04-23T10:22:20.267Z,99513.18
2019-04-23T10:25:12.969Z,99515.28
2019-04-23T10:28:10.904Z,99514.46
2019-04-23T10:31:00.738Z,99516.95
2019-04-23T10:33:52.914Z,99515.89
2019-04-23T10:36:44.298Z,99507.20
2019-04-23T10:39:39.068Z,99505.25
2019-04-23T10:42:31.429Z,99498.61
2019-04-23T10:46:03.957Z,99496.65
2019-04-23T10:55:25.599Z,99474.47
2019-04-23T10:58:22.842Z,99473.40
2019-04-23T11:07:09.971Z,99464.70
2019-04-23T11:09:56.980Z,99464.98
2019-04-23T11:13:17.737Z,99469.09
2019-04-23T11:16:27.592Z,99466.11
2019-04-23T11:21:56.089Z,99450.38
2019-04-23T11:27:35.074Z,99436.83
2019-04-23T11:33:20.026Z,99436.53
2019-04-23T11:38:32.245Z,99438.55
2019-04-23T11:39:28.435Z,99433.74
2019-04-23T11:42:06.741Z,99430.64
2019-04-23T11:48:22.418Z,99428.55
2019-04-23T11:50:49.913Z,99426.27
2019-04-23T11:51:20.401Z,99435.76
2019-04-23T11:53:52.547Z,99435.03
2019-04-23T11:59:31.595Z,99435.30
2019-04-23T12:02:40.137Z,99439.92
2019-04-23T12:05:41.659Z,99437.66
2019-04-23T12:08:45.519Z,99431.31
2019-04-23T12:11:54.425Z,99428.16
2019-04-23T12:15:18.109Z,99427.94
2019-04-23T12:17:51.203Z,99428.61
2019-04-23T12:21:08.305Z,99428.33
2019-04-23T12:23:54.731Z,99424.28
2019-04-23T12:26:44.401Z,99424.48
2019-04-23T12:29:44.531Z,99420.16
2019-04-23T12:35:29.076Z,99412.20
2019-04-23T12:41:26.506Z,99406.72
2019-04-23T12:44:34.849Z,99407.02
2019-04-23T12:47:18.815Z,99406.12
2019-04-23T12:50:31.062Z,99401.50
2019-04-23T12:52:53.282Z,99400.90
2019-04-23T12:58:36.064Z,99404.88
2019-04-23T13:01:42.724Z,99399.02
2019-04-23T13:04:24.880Z,99398.60
2019-04-23T13:07:25.789Z,99396.51
2019-04-23T13:10:19.341Z,99392.53
2019-04-23T13:13:16.687Z,99388.43
2019-04-23T13:18:49.782Z,99375.91
2019-04-23T13:25:23.886Z,99375.16
2019-04-23T13:28:06.611Z,99370.55
2019-04-23T13:30:59.393Z,99369.52
2019-04-23T13:34:06.927Z,99367.55
2019-04-23T13:36:45.547Z,99367.11
2019-04-23T13:39:40.388Z,99361.78
2019-04-23T13:42:40.371Z,99348.14
2019-04-23T13:48:15.082Z,99350.70
2019-04-23T13:51:25.669Z,99348.72
2019-04-23T13:54:08.169Z,99353.03
2019-04-23T13:57:36.497Z,99352.84
2019-04-23T13:59:54.065Z,99362.91
2019-04-23T14:02:42.440Z,99356.58
2019-04-23T14:06:00.645Z,99365.27
2019-04-23T14:08:53.680Z,99361.80
2019-04-23T14:11:51.556Z,99359.57
2019-04-23T14:14:56.763Z,99364.16
2019-04-23T14:17:59.925Z,99370.66
2019-04-23T14:23:27.236Z,99362.33
2019-04-23T14:29:01.179Z,99346.73
2019-04-23T14:32:06.797Z,99345.30
2019-04-23T14:37:58.123Z,99343.61
2019-04-23T14:40:42.969Z,99343.86
2019-04-23T14:43:35.604Z,99341.34
2019-04-23T14:49:30.944Z,99332.58
2019-04-23T14:52:23.278Z,99325.94
2019-04-23T14:55:40.189Z,99322.22
2019-04-23T14:58:20.770Z,99322.98
2019-04-23T15:06:54.840Z,99323.36
2019-04-23T15:09:53.211Z,99319.88
2019-04-23T15:15:26.841Z,99318.09
2019-04-23T15:18:45.189Z,99318.73
2019-04-23T15:24:23.088Z,99309.02
2019-04-23T15:29:53.825Z,99303.67
2019-04-23T15:33:16.813Z,99304.58
2019-04-23T15:36:02.509Z,99300.52
2019-04-23T15:38:55.886Z,99304.06
2019-04-23T15:42:02.948Z,99307.02
2019-04-23T15:44:28.179Z,99302.78
2019-04-23T15:47:26.491Z,99304.41
2019-04-23T15:50:23.577Z,99300.73
2019-04-23T15:53:05.961Z,99297.97
2019-04-23T15:56:16.413Z,99299.81
2019-04-23T16:01:40.476Z,99298.60
2019-04-23T16:04:18.129Z,99299.22
2019-04-23T16:07:09.857Z,99303.82
2019-04-23T16:13:33.942Z,99304.44
2019-04-23T16:16:28.193Z,99300.22
2019-04-23T16:19:22.042Z,99302.73
2019-04-23T16:22:10.761Z,99305.15
2019-04-23T16:25:06.814Z,99302.58
2019-04-23T16:31:00.847Z,99298.82
2019-04-23T16:33:54.263Z,99296.37
2019-04-23T16:36:43.806Z,99299.17
2019-04-23T16:39:39.085Z,99298.13
2019-04-23T16:42:40.063Z,99299.30
2019-04-23T16:45:45.973Z,99303.62
2019-04-23T16:48:34.606Z,99307.39
2019-04-23T16:51:24.636Z,99303.27
2019-04-23T17:02:54.688Z,99304.77
2019-04-23T17:11:31.740Z,99303.52
2019-04-23T17:14:44.334Z,99301.94
2019-04-23T17:17:09.358Z,99297.55
2019-04-23T17:23:03.908Z,99293.80
2019-04-23T17:25:59.300Z,99300.61
2019-04-23T17:28:44.637Z,99295.53
2019-04-23T17:34:40.864Z,99295.62
2019-04-23T17:40:45.107Z,99294.98
2019-04-23T17:43:26.447Z,99296.45
2019-04-23T17:46:18.137Z,99299.12
2019-04-23T17:49:10.804Z,99301.60
2019-04-23T17:52:03.207Z,99302.27
2019-04-23T17:57:55.874Z,99302.94
2019-04-23T18:00:57.132Z,99300.77
2019-04-23T18:06:37.311Z,99301.70
2019-04-23T18:09:27.794Z,99300.35
2019-04-23T18:12:25.437Z,99305.36
2019-04-23T18:15:04.874Z,99304.85
2019-04-23T18:18:01.932Z,99300.59
2019-04-23T18:21:23.307Z,99301.39
2019-04-23T18:24:27.310Z,99301.68
2019-04-23T18:27:19.171Z,99306.44
2019-04-23T18:30:16.077Z,99310.25
2019-04-23T18:33:58.142Z,99312.49
2019-04-23T18:36:08.003Z,99311.39
2019-04-23T18:39:06.370Z,99312.75
2019-04-23T18:42:11.600Z,99314.67
2019-04-23T18:48:03.760Z,99322.42
2019-04-23T18:50:46.771Z,99317.65
2019-04-23T18:56:23.157Z,99325.77
2019-04-23T19:02:38.825Z,99340.45
2019-04-23T19:05:28.274Z,99341.77
2019-04-23T19:08:42.474Z,99345.42
2019-04-23T19:11:34.324Z,99346.64
2019-04-23T19:14:30.741Z,99350.50
2019-04-23T19:20:16.296Z,99354.91
2019-04-23T19:23:09.534Z,99362.30
2019-04-23T19:25:43.766Z,99361.73
2019-04-23T19:28:47.415Z,99362.70
2019-04-23T19:31:58.352Z,99357.92
2019-04-23T19:34:43.889Z,99358.75
2019-04-23T19:37:49.062Z,99359.47
2019-04-23T19:40:38.017Z,99356.38
2019-04-23T19:43:34.418Z,99356.19
2019-04-23T19:46:39.748Z,99353.99
2019-04-23T19:52:34.284Z,99360.61
2019-04-23T19:54:58.834Z,99363.90
2019-04-23T19:58:17.912Z,99362.83
2019-04-23T20:03:49.690Z,99365.92
2019-04-23T20:07:00.410Z,99360.28
2019-04-23T20:15:13.456Z,99366.02
2019-04-23T20:18:05.801Z,99370.92
2019-04-23T20:26:59.554Z,99365.70
2019-04-23T20:30:22.971Z,99368.20
2019-04-23T20:36:25.884Z,99366.27
2019-04-23T20:39:16.380Z,99371.86
2019-04-23T20:47:51.471Z,99366.88
2019-04-23T20:50:39.256Z,99367.39
2019-04-23T20:54:00.449Z,99375.16
2019-04-23T20:56:51.133Z,99372.61
2019-04-23T20:59:40.861Z,99370.40
2019-04-23T21:03:06.700Z,99371.11
2019-04-23T21:05:41.216Z,99370.16
2019-04-23T21:08:45.095Z,99372.83
2019-04-23T21:11:25.039Z,99369.65
2019-04-23T21:14:26.853Z,99368.51
2019-04-23T21:17:07.416Z,99370.72
2019-04-23T21:20:08.774Z,99369.25
2019-04-23T21:28:45.368Z,99370.52
2019-04-23T21:31:56.166Z,99371.39
2019-04-23T21:34:34.119Z,99377.02
2019-04-23T21:37:49.518Z,99372.38
2019-04-23T21:43:58.922Z,99377.45
2019-04-23T21:46:40.235Z,99373.03
2019-04-23T21:52:17.944Z,99374.98
2019-04-23T21:55:14.894Z,99374.58
2019-04-23T21:58:07.310Z,99376.98
2019-04-23T22:01:21.231Z,99375.88
2019-04-23T22:04:24.641Z,99380.50
2019-04-23T22:10:00.579Z,99380.62
2019-04-23T22:13:47.464Z,99382.38
2019-04-23T22:16:00.123Z,99384.75
2019-04-23T22:18:38.066Z,99379.77
2019-04-23T22:24:12.238Z,99385.91
2019-04-23T22:27:09.869Z,99384.41
2019-04-23T22:30:02.951Z,99387.20
2019-04-23T22:33:03.271Z,99388.38
2019-04-23T22:36:04.617Z,99377.20
2019-04-23T22:38:49.186Z,99379.41
2019-04-23T22:41:44.035Z,99381.44
2019-04-23T22:44:39.153Z,99380.31
2019-04-23T22:47:33.585Z,99383.99
2019-04-23T22:50:24.756Z,99374.69
2019-04-23T22:53:09.194Z,99372.59
2019-04-23T22:56:10.624Z,99376.92
2019-04-23T22:59:09.686Z,99376.14
2019-04-23T23:02:07.554Z,99371.11
2019-04-23T23:05:10.312Z,99372.28
2019-04-23T23:07:55.804Z,99373.63
2019-04-23T23:10:44.578Z,99376.98
2019-04-23T23:13:52.248Z,99380.52
2019-04-23T23:16:28.361Z,99376.48
2019-04-23T23:22:20.288Z,99375.21
2019-04-23T23:25:11.447Z,99373.68
2019-04-23T23:28:06.288Z,99372.62
2019-04-23T23:31:02.015Z,99377.19
2019-04-23T23:33:52.327Z,99376.63
2019-04-23T23:36:51.392Z,99380.05
2019-04-23T23:39:37.176Z,99378.02
2019-04-23T23:48:16.515Z,99381.16
2019-04-23T23:57:12.057Z,99378.05
